Big Horn, WY (82833)

5:43 PM MDT on May 04, 2015 (GMT -0600)
MesoWest | | Change Station
CLOSE
Current Station
Personal Weather Station
Location: Big Horn, WY
Elevation: 8870 ft
Nearby Weather Stations

Elev 8870 ft 44.54 °N, 107.18 °W | Updated 1 hour ago

Mostly Cloudy
Mostly Cloudy
51 °F
Feels Like 51 °F
N
Wind Variable Wind from North
Gusts 0.0 mph

Today
High -- | Low -- °F
--% Chance of Precip.
Yesterday
High -- | Low -- °F
Precip. -- in
5:54 AM 8:16 PM
Full, 99% visible
Pressure 29.91 in
Visibility 10.0 miles
Clouds Few 9500 ft
Dew Point 37 °F
Humidity 57%
Rainfall in
Snow Depth Not available.
UV 2 out of 12
Pollen 9.40 out of 12
Air Quality Not available.
Flu Activity Sporadic
SPECI KSHR 042338Z AUTO 14009KT 10SM FEW095 21/06 A2991 RMK AO2 LTG DSNT SW T02060061

More Conditions Fewer Conditions

Pressure 29.91 in
Visibility 10.0 miles
Clouds Few 9500 ft
Dew Point 37 °F
Humidity 57%
Rainfall in
Snow Depth Not available.
UV 2 out of 12
Pollen 9.40 out of 12
Air Quality Not available.
Flu Activity Sporadic
SPECI KSHR 042338Z AUTO 14009KT 10SM FEW095 21/06 A2991 RMK AO2 LTG DSNT SW T02060061

More Conditions Fewer Conditions

Nepal has a long way to go to dig out and rebuild from a devastating earthquake. We have teamed up with several charities and organizations to make contributing to the relief effort as easy as possible.
How you can help: Portlight Strategies | Red Cross

10-Day Weather Forecast

Almanac

Astronomy

May. 04, 2015 Rise Set
Actual Time
Civil Twilight
Nautical Twilight
Astronomical Twilight
Moon
Length of Visible Light
Length of Day
Tomorrow will be .
, % of the Moon is Illuminated

Today's Extremes

State Highs State Lows

Community

WunderPhotos

Upload Photos

1,818,737 photos uploaded!

WunderBlogs® & News

Nearby

Air Quality

  Air Quality AQ Index Pollutant
Not available.

Snow Depth

Station Depth Elevation

Earthquake Activity

City Distance Mag. Time & Date
Minimum magnitude displayed is 2.5.

Coastal Water Temperatures

Place Temperature

Stations

Nearby Weather Stations

Station Location Temp. Windchill Dew Point Humidity Wind Precip. Elev Updated Type